Terminal Aerodrome Forecast
Issued by NWS

Home | Current Version | Previous Version | Text Only | Print | Product List | Glossary On
Versions: 1 2 3 4 5 6 7 8 9 10 11 12 13 14
002
FTUS46 KHNX 222320
TAFMCE
TAF
KMCE 222320Z 2300/2324 32012G18KT P6SM -SHRA BKN030 OVC050
     FM230600 31005KT P6SM BKN250
     FM231800 32012KT P6SM SCT250=

USA.gov is the U.S. government's official web portal to all federal, state and local government web resources and services.